KDRI/DRI METAR and TAF weather

Enter ICAO airport designator
Station Type Date Time Source
KDRI METAR 2019/10/18 07:35 UTC NOAA

KDRI 180735Z AUTO 00000KT 10SM CLR 13/10 A2994 RMK AO2 T01310104


Station Type Date Time Source
KDRI Decoded METAR 2019/10/18 07:35 UTC NOAA

De Ridder, Beauregard Parish Airport, LA, United States (KDRI) 30-49-54N 093-20-23W
Oct 18, 2019 - 03:35 AM EDT / 2019.10.18 0735 UTC
Wind: Calm:0
Visibility: 10 mile(s):0
Sky conditions: clear
Temperature: 55.6 F (13.1 C)
Dew Point: 50.7 F (10.4 C)
Relative Humidity: 83%
Pressure (altimeter): 29.94 in. Hg (1013 hPa)
ob: KDRI 180735Z AUTO 00000KT 10SM CLR 13/10 A2994 RMK AO2 T01310104
cycle: 7

Station Type Date Time Source
KDRI TAF UTC NOAA

Error!

Example: see airport list